Time;durP1;ratioP1;P1;durP2;ratioP2;P2;SDS_P1;SDS_P2;PMS_P1;PMS_P2;Temp;Humidity;BMP_temperature;BMP_pressure;BME280_temperature;BME280_humidity;BME280_pressure;Samples;Min_cycle;Max_cycle;Signal;HPM_P1;HPM_P2
2022/08/10 00:00:21;;;;;;;0.55;0.55;;;13.30;99.90;;;;;;5031584;28;20194;-84
2022/08/10 00:02:52;;;;;;;0.50;0.50;;;13.30;99.90;;;;;;5031906;28;20560;-84
2022/08/10 00:05:19;;;;;;;0.50;0.45;;;13.30;99.90;;;;;;5043533;28;20193;-83
2022/08/10 00:07:45;;;;;;;0.82;0.82;;;13.30;99.90;;;;;;5051675;28;20201;-84
2022/08/10 00:10:13;;;;;;;0.50;0.50;;;13.20;99.90;;;;;;5051490;28;20205;-84
2022/08/10 00:12:39;;;;;;;0.75;0.75;;;13.30;99.90;;;;;;5050962;28;20201;-84
2022/08/10 00:15:06;;;;;;;0.40;0.40;;;13.30;99.90;;;;;;5052742;28;20197;-84
2022/08/10 00:17:32;;;;;;;0.47;0.47;;;13.30;99.90;;;;;;5051194;28;20209;-85
2022/08/10 00:19:58;;;;;;;0.50;0.50;;;13.30;99.90;;;;;;5051375;28;20570;-84
2022/08/10 00:22:23;;;;;;;0.50;0.50;;;13.20;99.90;;;;;;5052567;28;20726;-84
2022/08/10 00:24:49;;;;;;;1.63;0.68;;;13.20;99.90;;;;;;5052375;28;20201;-84
2022/08/10 00:27:15;;;;;;;0.40;0.40;;;13.20;99.90;;;;;;5051167;28;20223;-82
2022/08/10 00:29:41;;;;;;;0.50;0.50;;;13.20;99.90;;;;;;5050842;28;20193;-83
2022/08/10 00:32:06;;;;;;;0.40;0.40;;;13.20;99.90;;;;;;5053544;28;20649;-83
2022/08/10 00:34:33;;;;;;;0.57;0.57;;;13.10;99.90;;;;;;5056697;28;20185;-84
2022/08/10 00:36:59;;;;;;;0.50;0.50;;;13.10;99.90;;;;;;5055623;28;20193;-83
2022/08/10 00:39:26;;;;;;;0.80;0.80;;;13.00;99.90;;;;;;5056788;28;20754;-84
2022/08/10 00:41:53;;;;;;;0.70;0.70;;;13.00;99.90;;;;;;5055643;28;20711;-83
2022/08/10 00:44:18;;;;;;;0.50;0.50;;;12.90;99.90;;;;;;5057143;28;20189;-83
2022/08/10 00:46:44;;;;;;;0.82;0.60;;;12.90;99.90;;;;;;5055461;28;20275;-84
2022/08/10 00:49:10;;;;;;;0.55;0.55;;;12.90;99.90;;;;;;5057039;28;20193;-84
2022/08/10 00:51:35;;;;;;;0.50;0.50;;;12.80;99.90;;;;;;5055696;28;20595;-84
2022/08/10 00:54:01;;;;;;;2.95;0.70;;;12.80;99.90;;;;;;5054972;28;20208;-85
2022/08/10 00:56:30;;;;;;;0.55;0.55;;;12.80;99.90;;;;;;5055211;28;20208;-84
2022/08/10 00:58:56;;;;;;;0.47;0.47;;;12.70;99.90;;;;;;5054930;28;20232;-85
2022/08/10 01:01:24;;;;;;;0.50;0.50;;;12.60;99.90;;;;;;5054288;28;20626;-85
2022/08/10 01:03:49;;;;;;;0.65;0.65;;;12.60;99.90;;;;;;5056342;28;20201;-87
2022/08/10 01:14:10;;;;;;;;;;;;;;;;;;;;;
2022/08/10 01:21:01;;;;;;;;;;;;;;;;;;;;;
2022/08/10 01:35:01;;;;;;;;;;;;;;;;;;;;;
2022/08/10 01:41:58;;;;;;;0.70;0.70;;;12.20;99.90;;;;;;4953838;28;20561;-84
2022/08/10 01:45:12;;;;;;;8.18;1.42;;;12.10;99.90;;;;;;4978520;28;20215;-85
2022/08/10 01:48:38;;;;;;;2.10;0.88;;;12.10;99.90;;;;;;4978373;28;20758;-86
2022/08/10 01:52:18;;;;;;;0.40;0.40;;;12.10;99.90;;;;;;5035007;28;20218;-85
2022/08/10 02:01:46;;;;;;;0.47;0.47;;;12.00;99.90;;;;;;4954804;29;20326;-83
2022/08/10 02:04:54;;;;;;;0.70;0.70;;;12.00;99.90;;;;;;5013767;28;20199;-84
2022/08/10 02:10:54;;;;;;;0.70;0.70;;;12.10;99.90;;;;;;5057490;28;20213;-85
2022/08/10 02:13:28;;;;;;;0.70;0.70;;;12.20;99.90;;;;;;5056890;28;20197;-83
2022/08/10 02:16:02;;;;;;;0.70;0.70;;;12.20;99.90;;;;;;5057364;28;20280;-84
2022/08/10 02:18:30;;;;;;;0.82;0.82;;;12.20;99.90;;;;;;5056772;28;20220;-84
2022/08/10 02:21:02;;;;;;;0.40;0.40;;;12.20;99.90;;;;;;5055936;28;20595;-85
2022/08/10 02:23:31;;;;;;;0.75;0.75;;;12.30;99.90;;;;;;5055595;28;20676;-84
2022/08/10 02:26:01;;;;;;;0.60;0.60;;;12.30;99.90;;;;;;5055845;28;20220;-85
2022/08/10 02:28:29;;;;;;;0.60;0.60;;;12.30;99.90;;;;;;5055784;28;20250;-84
2022/08/10 02:31:05;;;;;;;0.57;0.57;;;12.30;99.90;;;;;;5052959;28;20202;-84
2022/08/10 02:33:33;;;;;;;0.47;0.47;;;12.30;99.90;;;;;;5036706;28;20264;-84
2022/08/10 02:36:01;;;;;;;0.70;0.70;;;12.40;99.90;;;;;;5038666;28;20276;-84
2022/08/10 02:38:32;;;;;;;0.50;0.50;;;12.40;99.90;;;;;;5038491;28;20303;-85
2022/08/10 02:41:09;;;;;;;1.05;0.85;;;12.50;99.90;;;;;;5038293;28;20198;-84
2022/08/10 02:43:44;;;;;;;0.60;0.60;;;12.60;99.90;;;;;;5034485;28;20730;-84
2022/08/10 02:46:14;;;;;;;0.70;0.70;;;12.70;99.90;;;;;;5036159;28;20193;-85
2022/08/10 02:48:47;;;;;;;1.23;1.15;;;12.70;99.90;;;;;;5036095;28;20249;-85
2022/08/10 02:51:23;;;;;;;0.50;0.50;;;12.80;99.90;;;;;;5036187;28;20694;-84
2022/08/10 02:54:00;;;;;;;0.60;0.60;;;12.80;99.90;;;;;;5037594;28;20202;-85
2022/08/10 02:56:38;;;;;;;0.55;0.55;;;12.80;99.90;;;;;;5038453;28;20276;-85
2022/08/10 02:59:28;;;;;;;0.70;0.70;;;12.80;99.90;;;;;;5034485;28;20214;-85
2022/08/10 03:02:01;;;;;;;0.70;0.70;;;12.90;99.90;;;;;;5045288;28;20194;-85
2022/08/10 03:04:36;;;;;;;0.50;0.50;;;12.90;99.90;;;;;;5052172;28;20216;-84
2022/08/10 03:07:09;;;;;;;0.63;0.63;;;12.90;99.90;;;;;;5056267;28;20196;-84
2022/08/10 03:09:39;;;;;;;0.50;0.50;;;12.90;99.90;;;;;;5054669;28;20673;-84
2022/08/10 03:12:07;;;;;;;0.60;0.60;;;13.00;99.90;;;;;;5058748;28;20660;-85
2022/08/10 03:14:36;;;;;;;0.60;0.60;;;12.90;99.90;;;;;;5053551;28;20288;-84
2022/08/10 03:17:03;;;;;;;0.63;0.63;;;12.90;99.90;;;;;;5052112;28;20202;-84
2022/08/10 03:19:32;;;;;;;1.50;1.33;;;12.80;99.90;;;;;;5053654;28;20209;-83
2022/08/10 03:21:58;;;;;;;0.60;0.60;;;12.80;99.90;;;;;;5052288;28;20814;-83
2022/08/10 03:24:25;;;;;;;0.40;0.40;;;12.80;99.90;;;;;;5052259;28;20597;-83
2022/08/10 03:26:55;;;;;;;5.05;1.40;;;12.70;99.90;;;;;;5053291;28;20194;-83
2022/08/10 03:29:22;;;;;;;0.70;0.70;;;12.70;99.90;;;;;;5051789;28;20224;-83
2022/08/10 03:31:49;;;;;;;0.50;0.50;;;12.80;99.90;;;;;;5053234;28;20656;-83
2022/08/10 03:34:17;;;;;;;0.73;0.73;;;12.80;99.90;;;;;;5051832;28;20197;-83
2022/08/10 03:36:44;;;;;;;0.68;0.68;;;12.80;99.90;;;;;;5051744;28;20208;-84
2022/08/10 03:39:11;;;;;;;0.57;0.57;;;12.80;99.90;;;;;;5052774;28;20233;-85
2022/08/10 03:41:48;;;;;;;0.63;0.63;;;12.80;99.90;;;;;;5052963;28;20276;-86
2022/08/10 03:44:19;;;;;;;0.60;0.60;;;12.80;99.90;;;;;;5056392;28;20656;-85
2022/08/10 03:46:46;;;;;;;0.60;0.60;;;12.80;99.90;;;;;;5054814;28;20223;-84
2022/08/10 03:49:16;;;;;;;0.50;0.50;;;12.80;99.90;;;;;;5055056;28;20672;-85
2022/08/10 03:51:44;;;;;;;0.73;0.65;;;12.80;99.90;;;;;;5052241;28;20752;-85
2022/08/10 03:54:10;;;;;;;0.40;0.40;;;12.80;99.90;;;;;;5054448;28;20201;-84
2022/08/10 03:56:38;;;;;;;0.70;0.70;;;12.80;99.90;;;;;;5051617;28;20668;-85
2022/08/10 03:59:07;;;;;;;0.80;0.80;;;12.80;99.90;;;;;;5052223;28;20705;-85
2022/08/10 04:01:33;;;;;;;0.93;0.82;;;12.80;99.90;;;;;;5051693;28;20208;-84
2022/08/10 04:03:59;;;;;;;0.50;0.50;;;12.80;99.90;;;;;;5051579;28;20197;-84
2022/08/10 04:06:25;;;;;;;0.47;0.47;;;12.90;99.90;;;;;;5052747;28;20186;-85
2022/08/10 04:08:51;;;;;;;0.50;0.50;;;12.90;99.90;;;;;;5051688;28;20197;-85
2022/08/10 04:11:17;;;;;;;0.50;0.50;;;12.90;99.90;;;;;;5052654;28;20197;-85
2022/08/10 04:13:43;;;;;;;0.77;0.77;;;13.00;99.90;;;;;;5051184;28;20667;-85
2022/08/10 04:16:09;;;;;;;1.67;0.85;;;13.00;99.90;;;;;;5051475;28;20207;-85
2022/08/10 04:18:34;;;;;;;0.55;0.55;;;13.00;99.90;;;;;;5051910;28;20213;-85
2022/08/10 04:21:05;;;;;;;3.28;1.35;;;13.10;99.90;;;;;;5053644;28;20268;-85
2022/08/10 04:23:35;;;;;;;0.40;0.40;;;13.10;99.90;;;;;;5053003;28;20623;-85
2022/08/10 04:26:01;;;;;;;0.70;0.70;;;13.10;99.90;;;;;;5051766;28;20542;-85
2022/08/10 04:28:30;;;;;;;0.45;0.45;;;13.10;99.90;;;;;;5051591;28;20212;-85
2022/08/10 04:30:57;;;;;;;0.60;0.60;;;13.10;99.90;;;;;;5052307;28;20194;-86
2022/08/10 04:33:25;;;;;;;0.50;0.50;;;13.20;99.90;;;;;;5054837;28;20190;-86
2022/08/10 04:35:52;;;;;;;0.50;0.50;;;13.20;99.90;;;;;;5053690;28;20220;-85
2022/08/10 04:38:20;;;;;;;0.45;0.45;;;13.30;99.90;;;;;;5051574;28;20217;-85
2022/08/10 04:40:46;;;;;;;0.60;0.60;;;13.40;99.90;;;;;;5052903;28;20684;-85
2022/08/10 04:43:13;;;;;;;0.55;0.55;;;13.50;99.90;;;;;;5053465;28;20567;-84
2022/08/10 04:45:40;;;;;;;1.25;1.15;;;13.60;99.90;;;;;;5051969;28;20205;-85
2022/08/10 04:49:03;;;;;;;0.60;0.60;;;13.70;99.90;;;;;;5054054;28;20244;-89
2022/08/10 04:51:28;;;;;;;0.68;0.68;;;13.80;99.90;;;;;;5055534;28;20248;-84
2022/08/10 04:53:54;;;;;;;0.50;0.50;;;13.90;99.90;;;;;;5052422;28;20229;-85
2022/08/10 04:56:20;;;;;;;1.85;1.20;;;14.00;99.90;;;;;;5053166;28;20208;-83
2022/08/10 04:58:46;;;;;;;0.85;0.85;;;14.10;99.90;;;;;;5055360;28;20680;-84
2022/08/10 05:01:11;;;;;;;0.50;0.50;;;14.30;99.90;;;;;;5051382;28;20194;-84
2022/08/10 05:03:37;;;;;;;0.85;0.85;;;14.40;99.90;;;;;;5051724;28;20193;-85
2022/08/10 05:06:03;;;;;;;0.70;0.70;;;14.50;99.90;;;;;;5051459;28;20194;-85
2022/08/10 05:08:28;;;;;;;0.63;0.63;;;14.50;99.90;;;;;;5051072;28;20563;-84
2022/08/10 05:10:54;;;;;;;0.60;0.60;;;14.60;99.90;;;;;;5052341;28;20190;-85
2022/08/10 05:13:20;;;;;;;0.60;0.60;;;14.70;99.90;;;;;;5050936;28;20208;-83
2022/08/10 05:15:47;;;;;;;0.73;0.70;;;14.80;99.90;;;;;;5067871;28;20197;-85
2022/08/10 05:18:13;;;;;;;0.80;0.73;;;14.90;99.90;;;;;;5053783;28;20232;-85
2022/08/10 05:20:38;;;;;;;0.47;0.47;;;14.90;99.90;;;;;;5067748;28;20193;-86
2022/08/10 05:23:04;;;;;;;0.50;0.50;;;14.90;99.90;;;;;;5074755;28;20199;-86
2022/08/10 05:25:30;;;;;;;0.68;0.68;;;15.00;99.90;;;;;;5074070;28;20197;-84
2022/08/10 05:27:56;;;;;;;0.55;0.55;;;15.00;99.90;;;;;;5074855;28;20196;-84
2022/08/10 05:30:22;;;;;;;2.10;1.27;;;15.10;99.90;;;;;;5073509;28;20232;-84
2022/08/10 05:32:48;;;;;;;0.60;0.60;;;15.20;99.90;;;;;;5053841;28;20197;-84
2022/08/10 05:35:14;;;;;;;0.65;0.52;;;15.20;99.90;;;;;;5055110;28;20730;-84
2022/08/10 05:37:41;;;;;;;0.40;0.40;;;15.30;99.90;;;;;;5054698;28;20209;-85
2022/08/10 05:40:08;;;;;;;0.55;0.55;;;15.40;99.90;;;;;;5055386;28;20193;-85
2022/08/10 05:42:34;;;;;;;0.50;0.50;;;15.40;99.90;;;;;;5053849;28;20198;-84
2022/08/10 05:44:59;;;;;;;0.50;0.50;;;15.50;99.90;;;;;;5055242;28;20272;-84
2022/08/10 05:47:25;;;;;;;0.68;0.68;;;15.50;99.90;;;;;;5053799;28;20317;-85
2022/08/10 05:49:51;;;;;;;0.40;0.40;;;15.50;99.90;;;;;;5055324;28;20217;-85
2022/08/10 05:52:18;;;;;;;0.77;0.77;;;15.50;99.90;;;;;;5054236;28;20197;-84
2022/08/10 05:54:45;;;;;;;0.50;0.50;;;15.70;99.90;;;;;;5053853;28;20543;-85
2022/08/10 05:57:14;;;;;;;0.60;0.60;;;15.80;99.90;;;;;;5053788;28;20287;-85
2022/08/10 05:59:46;;;;;;;2.22;0.90;;;16.00;99.90;;;;;;5070268;28;21249;-82
2022/08/10 06:02:35;;;;;;;0.63;0.63;;;16.20;99.90;;;;;;5053532;28;20240;-85
2022/08/10 06:05:06;;;;;;;0.40;0.40;;;16.40;99.90;;;;;;5053551;28;20204;-85
2022/08/10 06:07:33;;;;;;;6.88;1.02;;;16.50;99.90;;;;;;5050278;28;20194;-85
2022/08/10 06:10:01;;;;;;;0.50;0.50;;;16.60;99.90;;;;;;5033997;28;20199;-85
2022/08/10 06:12:29;;;;;;;0.50;0.50;;;16.80;99.90;;;;;;5043448;28;20200;-84
2022/08/10 06:15:00;;;;;;;1.13;0.82;;;16.90;99.90;;;;;;5071021;28;20197;-84
2022/08/10 06:17:28;;;;;;;0.52;0.52;;;17.00;99.90;;;;;;5037432;28;20574;-84
2022/08/10 06:19:57;;;;;;;0.70;0.70;;;17.00;99.90;;;;;;5053664;28;20190;-83
2022/08/10 06:22:26;;;;;;;3.40;0.60;;;17.10;99.90;;;;;;5053197;28;20564;-85
2022/08/10 06:24:55;;;;;;;0.60;0.60;;;17.10;99.90;;;;;;5054308;28;20299;-84
2022/08/10 06:27:20;;;;;;;0.50;0.50;;;17.20;99.90;;;;;;5052898;28;20626;-84
2022/08/10 06:29:48;;;;;;;0.50;0.50;;;17.30;99.90;;;;;;5051962;28;20221;-84
2022/08/10 06:32:15;;;;;;;0.30;0.30;;;17.30;99.90;;;;;;5053178;28;20190;-85
2022/08/10 06:34:53;;;;;;;0.68;0.60;;;17.20;99.90;;;;;;5053012;28;20197;-84
2022/08/10 06:37:24;;;;;;;1.13;0.75;;;17.20;99.90;;;;;;5052808;28;20334;-84
2022/08/10 06:39:50;;;;;;;1.48;1.35;;;17.30;99.90;;;;;;5054175;28;20680;-84
2022/08/10 06:42:19;;;;;;;3.83;0.80;;;17.40;99.90;;;;;;5052927;28;20194;-84
2022/08/10 06:44:59;;;;;;;3.35;0.88;;;17.30;99.90;;;;;;5052770;28;20197;-84
2022/08/10 06:47:31;;;;;;;0.98;0.55;;;17.40;99.90;;;;;;5034408;28;20312;-83
2022/08/10 06:50:01;;;;;;;2.40;1.20;;;17.50;99.90;;;;;;5032825;28;20198;-85
2022/08/10 06:52:31;;;;;;;0.77;0.73;;;17.70;99.90;;;;;;5032523;28;20556;-85
2022/08/10 06:54:59;;;;;;;0.60;0.60;;;17.90;99.90;;;;;;5033045;28;20285;-85
2022/08/10 06:57:30;;;;;;;1.35;1.10;;;18.00;99.90;;;;;;5032396;28;20252;-85
2022/08/10 06:59:58;;;;;;;0.63;0.63;;;18.10;99.90;;;;;;5032521;28;20706;-84
2022/08/10 07:02:40;;;;;;;1.92;0.93;;;18.20;99.90;;;;;;5032257;28;20568;-85
2022/08/10 07:05:10;;;;;;;0.63;0.63;;;18.20;99.90;;;;;;5048146;28;20198;-86
2022/08/10 07:07:38;;;;;;;0.63;0.57;;;18.30;99.90;;;;;;5052136;28;20668;-86
2022/08/10 07:10:05;;;;;;;0.60;0.50;;;18.20;99.90;;;;;;5052563;28;20202;-85
2022/08/10 07:12:35;;;;;;;0.50;0.50;;;18.30;99.90;;;;;;5048688;28;20702;-85
2022/08/10 07:15:11;;;;;;;0.57;0.57;;;18.30;99.90;;;;;;5033521;28;20206;-85
2022/08/10 07:17:40;;;;;;;0.75;0.75;;;18.20;99.90;;;;;;5033776;28;20585;-86
2022/08/10 07:20:08;;;;;;;0.52;0.45;;;18.20;99.90;;;;;;5034754;28;20194;-86
2022/08/10 07:22:39;;;;;;;0.70;0.70;;;18.10;99.90;;;;;;5032330;28;20252;-85
2022/08/10 07:25:06;;;;;;;0.50;0.50;;;18.20;99.90;;;;;;5052931;28;20204;-85
2022/08/10 07:27:33;;;;;;;3.20;1.13;;;18.20;99.90;;;;;;5051802;28;20213;-85
2022/08/10 07:29:59;;;;;;;0.55;0.55;;;18.20;99.90;;;;;;5051946;28;20542;-84
2022/08/10 07:32:26;;;;;;;0.57;0.57;;;18.20;99.90;;;;;;5053026;28;20225;-84
2022/08/10 07:34:54;;;;;;;0.55;0.55;;;18.40;99.90;;;;;;5053144;28;20596;-85
2022/08/10 07:37:23;;;;;;;0.43;0.43;;;18.60;99.90;;;;;;5051535;28;20201;-84
2022/08/10 07:39:51;;;;;;;0.55;0.55;;;18.80;99.90;;;;;;5052232;28;20716;-85
2022/08/10 07:42:21;;;;;;;2.53;0.85;;;18.80;99.90;;;;;;5051267;28;20574;-85
2022/08/10 07:44:49;;;;;;;1.00;0.75;;;18.90;99.90;;;;;;5052101;28;20190;-85
2022/08/10 07:47:20;;;;;;;0.32;0.32;;;19.00;99.90;;;;;;5051714;28;20225;-85
2022/08/10 07:49:48;;;;;;;0.43;0.43;;;19.30;99.90;;;;;;5051875;28;20205;-85
2022/08/10 07:52:15;;;;;;;1.17;0.93;;;19.50;99.90;;;;;;5052359;28;20228;-86
2022/08/10 07:54:44;;;;;;;1.75;0.80;;;19.50;99.90;;;;;;5052522;28;20205;-85
2022/08/10 07:57:18;;;;;;;0.95;0.77;;;19.60;99.90;;;;;;5052345;28;20203;-86
2022/08/10 07:59:47;;;;;;;0.35;0.35;;;19.70;99.90;;;;;;5055092;28;20273;-86
2022/08/10 08:02:23;;;;;;;0.30;0.30;;;19.60;99.90;;;;;;5038230;28;20597;-86
2022/08/10 08:04:51;;;;;;;0.68;0.50;;;19.60;99.90;;;;;;5041549;28;20197;-86
2022/08/10 08:07:18;;;;;;;2.15;0.65;;;19.70;99.90;;;;;;5033206;28;20645;-85
2022/08/10 08:09:45;;;;;;;0.50;0.50;;;19.80;99.90;;;;;;5047915;28;20201;-86
2022/08/10 08:12:12;;;;;;;0.43;0.43;;;19.90;99.90;;;;;;5047553;28;20206;-85
2022/08/10 08:14:40;;;;;;;0.52;0.52;;;20.00;99.90;;;;;;5044553;28;20213;-86
2022/08/10 08:17:07;;;;;;;1.98;0.75;;;20.20;99.90;;;;;;5052188;28;20233;-86
2022/08/10 08:19:33;;;;;;;3.28;0.77;;;20.30;99.90;;;;;;5051033;28;20205;-86
2022/08/10 08:22:00;;;;;;;0.25;0.25;;;20.40;99.90;;;;;;5051498;28;20208;-86
2022/08/10 08:24:28;;;;;;;13.45;0.60;;;20.40;99.90;;;;;;5051348;28;20644;-86
2022/08/10 08:26:55;;;;;;;0.50;0.50;;;20.50;99.90;;;;;;5054015;28;20218;-85
2022/08/10 08:29:22;;;;;;;0.32;0.30;;;20.70;99.90;;;;;;5052422;28;20201;-85
2022/08/10 08:31:49;;;;;;;1.55;0.52;;;20.80;99.90;;;;;;5051499;28;20272;-85
2022/08/10 08:34:18;;;;;;;0.40;0.40;;;20.70;99.90;;;;;;5052711;28;20193;-86
2022/08/10 08:36:45;;;;;;;1.48;1.00;;;20.50;99.90;;;;;;5053888;28;20665;-87
2022/08/10 08:39:11;;;;;;;0.40;0.40;;;20.50;99.90;;;;;;5049398;28;20241;-85
2022/08/10 08:42:22;;;;;;;0.63;0.55;;;20.50;99.90;;;;;;5031609;28;20202;-85
2022/08/10 08:45:06;;;;;;;0.30;0.30;;;20.80;99.90;;;;;;5033186;28;20320;-84
2022/08/10 08:47:42;;;;;;;0.35;0.35;;;21.20;99.90;;;;;;5031240;28;20591;-85
2022/08/10 08:50:25;;;;;;;2.60;1.08;;;21.30;99.90;;;;;;5032543;28;20205;-85
2022/08/10 08:53:30;;;;;;;0.73;0.60;;;21.70;99.90;;;;;;5031674;28;20293;-85
2022/08/10 08:56:14;;;;;;;0.57;0.57;;;22.20;99.90;;;;;;5033475;28;20681;-83
2022/08/10 08:58:49;;;;;;;4.53;1.10;;;22.50;99.90;;;;;;5053102;28;20213;-84
2022/08/10 09:01:42;;;;;;;4.93;1.50;;;22.60;99.90;;;;;;5054900;28;20682;-83
2022/08/10 09:04:38;;;;;;;1.08;0.75;;;22.90;99.90;;;;;;5056638;28;20656;-85
2022/08/10 09:07:33;;;;;;;0.43;0.43;;;22.80;99.90;;;;;;5056018;28;20265;-85
2022/08/10 09:10:11;;;;;;;0.85;0.82;;;22.70;99.90;;;;;;5055025;28;20549;-84
2022/08/10 09:13:25;;;;;;;2.22;1.63;;;23.10;99.90;;;;;;5054166;28;20229;-84
2022/08/10 09:16:28;;;;;;;1.25;0.55;;;23.20;99.90;;;;;;5013868;28;20249;-84
2022/08/10 09:19:12;;;;;;;0.98;0.75;;;23.90;99.90;;;;;;5054440;28;20266;-83
2022/08/10 09:22:02;;;;;;;0.30;0.30;;;24.30;99.90;;;;;;5054391;28;20204;-84
2022/08/10 09:24:47;;;;;;;0.68;0.60;;;24.50;99.90;;;;;;5040847;28;20358;-84
2022/08/10 09:27:31;;;;;;;3.03;1.15;;;24.50;99.90;;;;;;5057500;28;20223;-84
2022/08/10 09:30:02;;;;;;;0.40;0.40;;;24.10;99.90;;;;;;5059724;28;20205;-85
2022/08/10 09:32:41;;;;;;;0.30;0.30;;;23.90;99.90;;;;;;5055989;28;20264;-85
2022/08/10 09:35:48;;;;;;;1.38;1.27;;;24.30;99.90;;;;;;5055354;28;20610;-86
2022/08/10 09:38:49;;;;;;;0.40;0.40;;;24.50;99.90;;;;;;5056993;28;20224;-86
2022/08/10 09:41:40;;;;;;;0.60;0.60;;;24.50;99.90;;;;;;5055127;28;20193;-85
2022/08/10 09:44:24;;;;;;;0.65;0.65;;;24.60;99.90;;;;;;5054857;28;20280;-85
2022/08/10 09:47:17;;;;;;;0.43;0.43;;;24.20;99.90;;;;;;5054855;28;20189;-85
2022/08/10 09:50:01;;;;;;;0.60;0.60;;;24.10;99.90;;;;;;5055097;28;20205;-86
2022/08/10 09:52:50;;;;;;;1.15;0.60;;;24.80;99.90;;;;;;5055193;28;20248;-85
2022/08/10 09:55:30;;;;;;;1.17;0.82;;;25.10;99.90;;;;;;5036442;28;20198;-86
2022/08/10 09:58:24;;;;;;;0.52;0.47;;;25.30;99.90;;;;;;5035766;28;20602;-87
2022/08/10 10:01:23;;;;;;;4.70;0.50;;;25.60;99.90;;;;;;5051671;28;20197;-86
2022/08/10 10:04:27;;;;;;;0.28;0.28;;;25.90;99.90;;;;;;5055214;28;20189;-85
2022/08/10 10:10:28;;;;;;;0.50;0.50;;;25.40;99.90;;;;;;5054123;28;20233;-84
2022/08/10 10:13:08;;;;;;;0.80;0.30;;;25.70;99.90;;;;;;5053521;28;20288;-84
2022/08/10 10:15:34;;;;;;;0.50;0.32;;;26.00;99.90;;;;;;5053772;28;20197;-85
2022/08/10 10:18:22;;;;;;;0.30;0.30;;;26.00;99.90;;;;;;5055791;28;20205;-85
2022/08/10 10:21:08;;;;;;;0.68;0.55;;;26.10;99.90;;;;;;5054465;28;20457;-84
2022/08/10 10:24:12;;;;;;;0.63;0.63;;;26.10;99.90;;;;;;5055241;28;20262;-84
2022/08/10 10:26:53;;;;;;;1.25;0.40;;;26.00;99.90;;;;;;5016386;28;20202;-84
2022/08/10 10:29:25;;;;;;;0.32;0.32;;;26.00;99.90;;;;;;5053343;28;20577;-84
2022/08/10 10:32:11;;;;;;;0.40;0.40;;;26.30;99.90;;;;;;5053910;28;20538;-85
2022/08/10 10:35:08;;;;;;;0.60;0.60;;;26.20;99.90;;;;;;5052234;28;20213;-84
2022/08/10 10:37:35;;;;;;;3.33;0.80;;;26.00;99.90;;;;;;5053458;28;20200;-84
2022/08/10 10:40:03;;;;;;;2.33;0.98;;;26.10;99.90;;;;;;5052832;28;20197;-84
2022/08/10 10:42:44;;;;;;;0.52;0.52;;;26.40;99.90;;;;;;5052576;28;20282;-84
2022/08/10 10:45:22;;;;;;;3.17;1.35;;;26.50;99.90;;;;;;5053194;28;20200;-86
2022/08/10 10:48:09;;;;;;;1.02;0.43;;;26.70;99.90;;;;;;5052889;28;20819;-84
2022/08/10 10:51:03;;;;;;;0.52;0.52;;;26.50;99.90;;;;;;5052749;28;20689;-84
2022/08/10 10:53:50;;;;;;;0.50;0.50;;;26.70;99.90;;;;;;5042269;28;20296;-84
2022/08/10 10:56:41;;;;;;;1.90;0.52;;;26.90;99.90;;;;;;5053962;28;20189;-84
2022/08/10 10:59:51;;;;;;;0.43;0.43;;;27.10;99.90;;;;;;5052476;28;20221;-84
2022/08/10 11:02:31;;;;;;;1.38;1.05;;;26.90;99.90;;;;;;5049108;28;20198;-84
2022/08/10 11:05:27;;;;;;;1.25;0.73;;;27.30;99.90;;;;;;5032792;28;20281;-86
2022/08/10 11:08:00;;;;;;;0.35;0.35;;;27.00;99.90;;;;;;5033940;28;20236;-84
2022/08/10 11:11:08;;;;;;;0.60;0.32;;;27.10;99.90;;;;;;5033919;28;20250;-84
2022/08/10 11:13:47;;;;;;;0.85;0.63;;;27.00;99.90;;;;;;5041760;28;20351;-84
2022/08/10 11:16:22;;;;;;;0.55;0.35;;;26.90;99.90;;;;;;5033291;28;20197;-85
2022/08/10 11:18:54;;;;;;;0.60;0.60;;;27.20;99.90;;;;;;5032525;28;20214;-85
2022/08/10 11:21:49;;;;;;;2.38;1.25;;;27.70;99.90;;;;;;5032412;28;20193;-83
2022/08/10 11:24:33;;;;;;;1.65;0.50;;;28.20;99.90;;;;;;5033647;28;20213;-85
2022/08/10 11:27:29;;;;;;;0.82;0.57;;;28.70;99.90;;;;;;5033656;28;20197;-85
2022/08/10 11:30:05;;;;;;;0.57;0.55;;;28.40;99.90;;;;;;5039256;28;20197;-84
2022/08/10 11:32:40;;;;;;;0.30;0.30;;;28.30;99.90;;;;;;5051979;28;20216;-84
2022/08/10 11:35:30;;;;;;;0.40;0.40;;;28.10;99.90;;;;;;5051951;28;20561;-84
2022/08/10 11:38:49;;;;;;;1.38;0.68;;;27.60;99.90;;;;;;5054559;28;20672;-83
2022/08/10 11:41:59;;;;;;;0.63;0.63;;;27.50;99.90;;;;;;5014555;28;20209;-83
2022/08/10 11:44:46;;;;;;;1.02;0.73;;;28.00;99.90;;;;;;5031132;28;20622;-83
2022/08/10 11:47:15;;;;;;;0.52;0.32;;;28.30;99.90;;;;;;5014442;28;20225;-84
2022/08/10 11:50:20;;;;;;;0.70;0.65;;;28.50;99.90;;;;;;5014455;28;20210;-83
2022/08/10 11:53:35;;;;;;;0.52;0.50;;;28.90;99.90;;;;;;5008524;28;20206;-83
2022/08/10 11:56:01;;;;;;;0.20;0.20;;;29.00;99.90;;;;;;5028791;28;20714;-83
2022/08/10 12:01:26;;;;;;;0.30;0.30;;;28.00;99.90;;;;;;5030886;28;20730;-83
2022/08/10 12:03:53;;;;;;;0.43;0.43;;;28.00;99.90;;;;;;5031041;28;20280;-84
2022/08/10 12:06:21;;;;;;;0.85;0.40;;;27.90;99.90;;;;;;5030753;28;20726;-83
2022/08/10 12:08:49;;;;;;;0.15;0.15;;;28.30;99.90;;;;;;5014323;28;20202;-83
2022/08/10 12:11:17;;;;;;;0.30;0.30;;;28.50;99.90;;;;;;5014406;28;20208;-84
2022/08/10 12:13:51;;;;;;;0.75;0.43;;;28.90;99.90;;;;;;5030736;28;20193;-84
2022/08/10 12:16:20;;;;;;;0.17;0.17;;;29.10;99.90;;;;;;5051193;28;20205;-84
2022/08/10 12:18:54;;;;;;;0.43;0.43;;;29.30;99.90;;;;;;5051457;28;20686;-84
2022/08/10 12:21:25;;;;;;;0.30;0.30;;;29.50;99.90;;;;;;5052697;28;20216;-85
2022/08/10 12:24:31;;;;;;;0.35;0.35;;;29.70;99.90;;;;;;5052825;28;20243;-84
2022/08/10 12:27:22;;;;;;;0.25;0.25;;;29.80;99.90;;;;;;5027947;28;20208;-84
2022/08/10 12:29:58;;;;;;;0.52;0.40;;;29.50;99.90;;;;;;5055431;28;20270;-83
2022/08/10 12:33:02;;;;;;;1.38;0.50;;;29.10;99.90;;;;;;5055514;28;20248;-84
2022/08/10 12:36:03;;;;;;;0.13;0.13;;;29.10;99.90;;;;;;5055426;28;20545;-83
2022/08/10 12:39:05;;;;;;;0.30;0.30;;;29.30;99.90;;;;;;5056575;28;20661;-84
2022/08/10 12:41:42;;;;;;;2.17;0.55;;;29.80;99.90;;;;;;5056618;28;20208;-83
2022/08/10 12:44:22;;;;;;;0.50;0.35;;;29.70;99.90;;;;;;5060946;28;20754;-83
2022/08/10 12:47:18;;;;;;;1.05;0.45;;;29.00;99.90;;;;;;5054990;28;20287;-84
2022/08/10 12:50:01;;;;;;;0.50;0.40;;;28.10;99.90;;;;;;5055397;28;20197;-84
2022/08/10 12:52:33;;;;;;;6.90;0.63;;;28.10;99.90;;;;;;5055024;28;20197;-83
2022/08/10 12:55:01;;;;;;;0.28;0.28;;;27.80;99.90;;;;;;5055145;28;20205;-84
2022/08/10 12:57:28;;;;;;;6.38;0.68;;;28.00;99.90;;;;;;5055993;28;20189;-84
2022/08/10 12:59:58;;;;;;;0.55;0.50;;;27.30;99.90;;;;;;5056374;28;20248;-83
2022/08/10 13:02:32;;;;;;;0.20;0.20;;;26.90;99.90;;;;;;5056078;28;20221;-83
2022/08/10 13:05:06;;;;;;;1.08;0.73;;;27.10;99.90;;;;;;5056212;28;20677;-83
2022/08/10 13:07:38;;;;;;;0.38;0.38;;;27.30;99.90;;;;;;5054928;28;20200;-83
2022/08/10 13:10:08;;;;;;;0.30;0.30;;;27.70;99.90;;;;;;5054799;28;20644;-83
2022/08/10 13:12:41;;;;;;;0.40;0.40;;;27.30;99.90;;;;;;5056102;28;20227;-83
2022/08/10 13:15:19;;;;;;;0.65;0.63;;;27.50;99.90;;;;;;5055984;28;20189;-83
2022/08/10 13:17:49;;;;;;;1.17;0.20;;;27.80;99.90;;;;;;5054791;28;20200;-85
2022/08/10 13:20:19;;;;;;;11.40;0.55;;;27.90;99.90;;;;;;5055997;28;20193;-85
2022/08/10 13:22:48;;;;;;;0.40;0.40;;;27.70;99.90;;;;;;5051631;28;20568;-84
2022/08/10 13:25:19;;;;;;;1.23;0.70;;;27.70;99.90;;;;;;5035221;28;20645;-84
2022/08/10 13:27:48;;;;;;;0.43;0.30;;;27.70;99.90;;;;;;5034584;28;20198;-85
2022/08/10 13:30:14;;;;;;;0.60;0.30;;;27.50;99.90;;;;;;5060629;28;20201;-84
2022/08/10 13:32:49;;;;;;;0.28;0.28;;;27.60;99.90;;;;;;5055221;28;20231;-84
2022/08/10 13:35:18;;;;;;;0.55;0.50;;;27.40;99.90;;;;;;5050458;28;20570;-83
2022/08/10 13:37:47;;;;;;;1.95;0.95;;;27.60;99.90;;;;;;5035408;28;20652;-84
2022/08/10 13:40:17;;;;;;;9.07;0.82;;;27.70;99.90;;;;;;5050116;28;20193;-83
2022/08/10 13:42:44;;;;;;;0.77;0.40;;;27.20;99.90;;;;;;5034026;28;20198;-83
2022/08/10 13:45:13;;;;;;;0.90;0.60;;;27.00;99.90;;;;;;5034134;28;20197;-83
2022/08/10 13:47:42;;;;;;;0.25;0.25;;;27.00;99.90;;;;;;5033875;28;20229;-84
2022/08/10 13:50:11;;;;;;;0.75;0.50;;;27.00;99.90;;;;;;5053744;28;20203;-83
2022/08/10 13:52:40;;;;;;;0.20;0.20;;;26.90;99.90;;;;;;5055253;28;20203;-83
2022/08/10 13:55:12;;;;;;;0.70;0.40;;;27.10;99.90;;;;;;5055250;28;20558;-84
2022/08/10 13:57:40;;;;;;;0.38;0.38;;;27.10;99.90;;;;;;5053838;28;20215;-83
2022/08/10 14:00:08;;;;;;;0.38;0.30;;;27.10;99.90;;;;;;5055182;28;20612;-84
2022/08/10 14:02:58;;;;;;;0.22;0.22;;;27.30;99.90;;;;;;5053456;28;20194;-83
2022/08/10 14:05:37;;;;;;;1.05;0.82;;;27.30;99.90;;;;;;5054963;28;20189;-84
2022/08/10 14:08:08;;;;;;;0.45;0.45;;;27.20;99.90;;;;;;5053681;28;20194;-84
2022/08/10 14:10:38;;;;;;;1.45;0.85;;;27.30;99.90;;;;;;5053489;28;20207;-83
2022/08/10 14:13:06;;;;;;;0.20;0.20;;;27.10;99.90;;;;;;5053759;28;20248;-83